Time;durP1;ratioP1;P1;durP2;ratioP2;P2;SDS_P1;SDS_P2;PMS_P1;PMS_P2;Temp;Humidity;BMP_temperature;BMP_pressure;BME280_temperature;BME280_humidity;BME280_pressure;Samples;Min_cycle;Max_cycle;Signal;HPM_P1;HPM_P2
2023/08/26 00:00:29;;;;;;;1.40;0.93;;;26.10;64.50;;;;;;5051107;28;20091;-71
2023/08/26 00:02:56;;;;;;;1.70;0.80;;;26.10;64.60;;;;;;5053460;28;20409;-71
2023/08/26 00:05:22;;;;;;;0.73;0.55;;;26.10;64.70;;;;;;5052542;28;20120;-72
2023/08/26 00:07:48;;;;;;;3.22;1.02;;;26.00;65.10;;;;;;5052092;28;20041;-72
2023/08/26 00:10:14;;;;;;;2.70;1.13;;;26.00;65.10;;;;;;5050851;28;20543;-72
2023/08/26 00:12:40;;;;;;;1.42;1.00;;;26.00;65.40;;;;;;5051830;28;20485;-72
2023/08/26 00:15:07;;;;;;;1.35;0.75;;;26.00;65.50;;;;;;5051136;28;20547;-71
2023/08/26 00:17:34;;;;;;;1.10;0.95;;;25.90;64.30;;;;;;5053022;28;20055;-71
2023/08/26 00:20:00;;;;;;;0.95;0.85;;;25.80;64.70;;;;;;5051726;28;20363;-72
2023/08/26 00:22:26;;;;;;;1.98;1.45;;;25.80;65.50;;;;;;5050721;28;20041;-72
2023/08/26 00:24:52;;;;;;;1.80;0.82;;;25.70;64.70;;;;;;5051708;28;20375;-72
2023/08/26 00:27:18;;;;;;;2.85;1.13;;;25.70;64.80;;;;;;5052406;28;20032;-72
2023/08/26 00:29:44;;;;;;;1.23;0.70;;;25.70;64.80;;;;;;5052853;28;20083;-72
2023/08/26 00:32:10;;;;;;;2.15;1.00;;;25.60;64.80;;;;;;5050678;28;20425;-71
2023/08/26 00:34:36;;;;;;;1.88;1.25;;;25.60;65.00;;;;;;5052528;28;20037;-72
2023/08/26 00:37:03;;;;;;;1.58;1.27;;;25.60;65.00;;;;;;5052402;28;20045;-72
2023/08/26 00:39:29;;;;;;;1.35;0.85;;;25.60;65.10;;;;;;5052897;28;20037;-71
2023/08/26 00:41:55;;;;;;;0.98;0.77;;;25.60;65.00;;;;;;5051529;28;20041;-71
2023/08/26 00:44:22;;;;;;;1.15;0.82;;;25.60;65.20;;;;;;5052717;28;20045;-72
2023/08/26 00:46:49;;;;;;;1.00;0.68;;;25.50;65.50;;;;;;5050836;28;20063;-72
2023/08/26 00:49:16;;;;;;;1.48;1.02;;;25.50;65.60;;;;;;5051367;28;20374;-71
2023/08/26 00:51:42;;;;;;;1.50;0.95;;;25.50;65.40;;;;;;5050018;28;20060;-72
2023/08/26 00:54:09;;;;;;;1.55;1.02;;;25.50;65.60;;;;;;5051346;28;20049;-72
2023/08/26 00:56:35;;;;;;;3.65;1.73;;;25.40;65.40;;;;;;5051622;28;20044;-72
2023/08/26 00:59:02;;;;;;;0.77;0.52;;;25.40;65.10;;;;;;5051184;28;20029;-71
2023/08/26 01:01:31;;;;;;;1.45;1.10;;;25.30;65.50;;;;;;5049910;28;20033;-72
2023/08/26 01:03:58;;;;;;;1.52;0.93;;;25.30;65.20;;;;;;5034348;28;20473;-71
2023/08/26 01:06:24;;;;;;;1.50;0.98;;;25.20;65.10;;;;;;5051729;28;20033;-72
2023/08/26 01:08:51;;;;;;;1.20;1.10;;;25.20;65.90;;;;;;5050747;28;20052;-72
2023/08/26 01:11:42;;;;;;;2.05;1.65;;;25.20;66.00;;;;;;5032997;28;20071;-72
2023/08/26 01:14:28;;;;;;;1.85;1.20;;;25.10;65.70;;;;;;5050928;28;20048;-71
2023/08/26 01:16:55;;;;;;;1.55;1.05;;;25.10;65.70;;;;;;5050447;28;20557;-71
2023/08/26 01:19:40;;;;;;;2.67;1.95;;;25.10;65.80;;;;;;5033928;28;20502;-71
2023/08/26 01:22:08;;;;;;;1.67;1.00;;;25.10;65.90;;;;;;5049926;28;20068;-71
2023/08/26 01:24:36;;;;;;;2.95;1.90;;;25.10;65.80;;;;;;5052047;28;20041;-72
2023/08/26 01:27:03;;;;;;;1.52;0.68;;;25.10;66.00;;;;;;5049477;28;20036;-71
2023/08/26 01:29:29;;;;;;;1.75;1.45;;;25.10;65.50;;;;;;5050665;28;20033;-71
2023/08/26 01:32:33;;;;;;;2.10;0.95;;;25.10;66.30;;;;;;5049679;28;20033;-71
2023/08/26 01:34:59;;;;;;;1.00;0.90;;;25.00;66.10;;;;;;5051805;28;20477;-71
2023/08/26 01:37:27;;;;;;;1.17;0.85;;;25.00;66.30;;;;;;5050083;28;20063;-72
2023/08/26 01:39:58;;;;;;;0.70;0.50;;;25.00;66.50;;;;;;5033828;28;20029;-71
2023/08/26 01:42:26;;;;;;;1.88;1.17;;;24.90;66.80;;;;;;5050722;28;20064;-71
2023/08/26 01:44:52;;;;;;;1.15;0.80;;;24.90;67.00;;;;;;5050427;28;20046;-72
2023/08/26 01:47:18;;;;;;;1.83;0.85;;;24.90;67.10;;;;;;5050009;28;20044;-72
2023/08/26 01:49:45;;;;;;;1.92;1.05;;;24.90;67.20;;;;;;5050192;28;20056;-72
2023/08/26 01:52:11;;;;;;;0.98;0.70;;;24.90;66.40;;;;;;5050628;28;20143;-72
2023/08/26 01:54:37;;;;;;;0.88;0.65;;;24.90;66.10;;;;;;5050080;28;20444;-72
2023/08/26 01:57:03;;;;;;;2.53;1.50;;;24.80;66.60;;;;;;5051160;28;20481;-72
2023/08/26 01:59:29;;;;;;;1.48;1.17;;;24.80;65.50;;;;;;5051569;28;20060;-72
2023/08/26 02:01:56;;;;;;;1.80;1.13;;;24.80;66.00;;;;;;5032377;28;20036;-71
2023/08/26 02:04:23;;;;;;;1.35;1.00;;;24.70;66.60;;;;;;5050360;28;20433;-72
2023/08/26 02:06:49;;;;;;;0.70;0.57;;;24.60;66.40;;;;;;5049414;28;20536;-72
2023/08/26 02:09:15;;;;;;;2.08;0.90;;;24.60;66.60;;;;;;5051517;28;20041;-71
2023/08/26 02:11:41;;;;;;;1.20;0.40;;;24.60;66.40;;;;;;5048992;28;20033;-72
2023/08/26 02:14:07;;;;;;;1.55;1.42;;;24.60;66.50;;;;;;5051530;28;20071;-71
2023/08/26 02:16:33;;;;;;;0.95;0.70;;;24.60;67.30;;;;;;5049617;28;20033;-72
2023/08/26 02:18:59;;;;;;;;;;;24.50;66.40;;;;;;5050677;28;20044;-72
2023/08/26 02:21:25;;;;;;;0.95;0.70;;;24.60;66.40;;;;;;5050354;28;19939;-72
2023/08/26 02:23:50;;;;;;;0.45;0.45;;;24.50;66.40;;;;;;5033636;28;20406;-72
2023/08/26 02:26:17;;;;;;;1.05;0.77;;;24.50;66.70;;;;;;5049355;28;20033;-72
2023/08/26 02:28:43;;;;;;;1.08;0.75;;;24.50;66.70;;;;;;5051157;28;20025;-72
2023/08/26 02:31:09;;;;;;;2.17;1.45;;;24.50;66.60;;;;;;5032169;28;20045;-72
2023/08/26 02:33:35;;;;;;;0.65;0.50;;;24.60;66.90;;;;;;5051066;28;20596;-72
2023/08/26 02:36:01;;;;;;;2.78;1.02;;;24.60;66.70;;;;;;5050629;28;20052;-72
2023/08/26 02:38:26;;;;;;;;;;;24.60;66.70;;;;;;5054329;28;20486;-72
2023/08/26 02:40:54;;;;;;;0.88;0.68;;;24.70;66.50;;;;;;5052541;28;20008;-72
2023/08/26 02:43:21;;;;;;;1.75;1.00;;;24.60;66.40;;;;;;5053582;28;20394;-72
2023/08/26 02:46:10;;;;;;;1.52;0.68;;;24.60;66.50;;;;;;5054684;28;20103;-72
2023/08/26 02:48:36;;;;;;;1.50;0.82;;;24.60;66.50;;;;;;5053564;28;20033;-72
2023/08/26 02:51:02;;;;;;;2.10;1.15;;;24.60;66.70;;;;;;5053882;28;20041;-71
2023/08/26 02:53:30;;;;;;;2.03;1.17;;;24.50;67.40;;;;;;5053415;28;20033;-72
2023/08/26 02:55:57;;;;;;;1.10;0.68;;;24.50;67.70;;;;;;5053120;28;20033;-72
2023/08/26 02:58:24;;;;;;;1.67;0.43;;;24.50;67.70;;;;;;5054597;28;20033;-72
2023/08/26 03:00:50;;;;;;;2.13;1.05;;;24.50;67.80;;;;;;5052197;28;20513;-72
2023/08/26 03:03:16;;;;;;;1.70;0.88;;;24.50;68.10;;;;;;5053287;28;20037;-72
2023/08/26 03:05:43;;;;;;;1.13;0.73;;;24.50;68.10;;;;;;5054153;28;20375;-72
2023/08/26 03:08:09;;;;;;;0.80;0.70;;;24.50;67.80;;;;;;5054455;28;20029;-71
2023/08/26 03:10:35;;;;;;;1.38;0.70;;;24.60;67.90;;;;;;5053548;28;20033;-72
2023/08/26 03:13:01;;;;;;;2.97;1.77;;;24.60;68.20;;;;;;5054439;28;20029;-72
2023/08/26 03:15:29;;;;;;;3.20;1.77;;;24.60;68.40;;;;;;5052569;28;20098;-72
2023/08/26 03:17:56;;;;;;;1.33;0.85;;;24.60;68.50;;;;;;5054349;28;20374;-72
2023/08/26 03:20:23;;;;;;;2.50;1.33;;;24.60;68.50;;;;;;5051978;28;20047;-71
2023/08/26 03:22:49;;;;;;;2.83;0.90;;;24.60;68.20;;;;;;5052971;28;20029;-71
2023/08/26 03:25:16;;;;;;;1.15;0.75;;;24.50;68.30;;;;;;5052092;28;20568;-72
2023/08/26 03:27:42;;;;;;;2.22;1.25;;;24.50;68.30;;;;;;5052743;28;20075;-71
2023/08/26 03:30:08;;;;;;;2.58;1.60;;;24.50;68.80;;;;;;5053160;28;20049;-72
2023/08/26 03:32:34;;;;;;;1.40;1.25;;;24.50;68.20;;;;;;5052727;28;20065;-72
2023/08/26 03:35:00;;;;;;;1.95;0.63;;;24.50;68.90;;;;;;5052430;28;20040;-72
2023/08/26 03:37:26;;;;;;;3.72;3.42;;;24.50;69.40;;;;;;5035499;28;20079;-71
2023/08/26 03:39:52;;;;;;;2.92;1.73;;;24.40;69.30;;;;;;5053985;28;20041;-71
2023/08/26 03:42:18;;;;;;;1.13;1.02;;;24.40;69.40;;;;;;5051504;28;20037;-71
2023/08/26 03:44:45;;;;;;;1.95;1.02;;;24.50;69.40;;;;;;5052655;28;20045;-72
2023/08/26 03:47:11;;;;;;;3.00;1.50;;;24.40;69.50;;;;;;5035437;28;20029;-72
2023/08/26 03:49:37;;;;;;;1.88;1.48;;;24.40;69.70;;;;;;5051691;28;20075;-72
2023/08/26 03:52:03;;;;;;;1.17;1.05;;;24.40;69.80;;;;;;5051390;28;20470;-72
2023/08/26 03:54:29;;;;;;;2.28;1.58;;;24.40;69.40;;;;;;5053607;28;20044;-72
2023/08/26 03:56:55;;;;;;;1.55;0.93;;;24.40;70.10;;;;;;5053026;28;20033;-72
2023/08/26 03:59:21;;;;;;;3.22;1.10;;;24.40;70.10;;;;;;5053455;28;20037;-72
2023/08/26 04:01:47;;;;;;;1.15;0.88;;;24.40;70.50;;;;;;5052452;28;20033;-72
2023/08/26 04:04:15;;;;;;;3.28;0.95;;;24.40;70.30;;;;;;5053452;28;20041;-71
2023/08/26 04:06:41;;;;;;;1.13;0.77;;;24.40;70.20;;;;;;5035240;28;20021;-72
2023/08/26 04:09:08;;;;;;;2.15;1.00;;;24.50;70.40;;;;;;5053300;28;20033;-71
2023/08/26 04:11:34;;;;;;;1.70;1.40;;;24.40;71.40;;;;;;5052003;28;20044;-72
2023/08/26 04:14:00;;;;;;;3.08;1.75;;;24.30;70.70;;;;;;5035346;28;20071;-72
2023/08/26 04:16:28;;;;;;;2.28;1.10;;;24.30;70.70;;;;;;5051309;28;20037;-72
2023/08/26 04:18:54;;;;;;;6.03;1.63;;;24.30;70.60;;;;;;5053140;28;20025;-72
2023/08/26 04:21:20;;;;;;;4.10;1.88;;;24.40;70.60;;;;;;5050826;28;20051;-72
2023/08/26 04:23:46;;;;;;;1.08;0.75;;;24.40;70.90;;;;;;5051853;28;20060;-72
2023/08/26 04:26:12;;;;;;;4.22;1.92;;;24.40;71.00;;;;;;5052744;28;20043;-72
2023/08/26 04:28:38;;;;;;;2.05;1.60;;;24.40;71.10;;;;;;5051787;28;20029;-72
2023/08/26 04:31:06;;;;;;;2.40;1.13;;;24.30;71.00;;;;;;5050566;28;20386;-72
2023/08/26 04:33:32;;;;;;;4.38;2.55;;;24.30;71.40;;;;;;5052807;28;20079;-72
2023/08/26 04:35:58;;;;;;;1.58;0.95;;;24.40;71.30;;;;;;5052373;28;20526;-72
2023/08/26 04:38:24;;;;;;;2.70;1.45;;;24.30;71.70;;;;;;5052584;28;20033;-72
2023/08/26 04:40:50;;;;;;;0.47;0.35;;;24.30;71.60;;;;;;5050378;28;20049;-72
2023/08/26 04:43:16;;;;;;;2.10;1.50;;;24.30;72.00;;;;;;5034859;28;20520;-72
2023/08/26 04:45:43;;;;;;;1.60;1.08;;;24.30;72.00;;;;;;5052303;28;20041;-72
2023/08/26 04:48:09;;;;;;;0.95;0.88;;;24.30;71.90;;;;;;5052471;28;20021;-72
2023/08/26 04:50:36;;;;;;;3.28;1.88;;;24.30;71.60;;;;;;5049980;28;20052;-72
2023/08/26 04:53:02;;;;;;;1.15;0.82;;;24.30;71.50;;;;;;5034513;28;20045;-72
2023/08/26 04:55:28;;;;;;;2.05;1.15;;;24.40;71.50;;;;;;5050858;28;20037;-72
2023/08/26 04:57:56;;;;;;;2.25;1.45;;;24.40;71.40;;;;;;5052606;28;20064;-72
2023/08/26 05:00:22;;;;;;;1.65;0.98;;;24.40;71.80;;;;;;5051380;28;20025;-72
2023/08/26 05:02:48;;;;;;;2.95;1.90;;;24.50;72.00;;;;;;5051061;28;20037;-72
2023/08/26 05:05:14;;;;;;;1.83;0.95;;;24.50;71.60;;;;;;5051942;28;20053;-72
2023/08/26 05:07:40;;;;;;;3.30;2.33;;;24.60;71.40;;;;;;5034233;28;20057;-72
2023/08/26 05:10:07;;;;;;;3.67;1.42;;;24.70;71.50;;;;;;5051442;28;20083;-72
2023/08/26 05:12:33;;;;;;;2.45;1.65;;;24.70;71.60;;;;;;5050929;28;20120;-72
2023/08/26 05:14:59;;;;;;;3.30;2.15;;;24.80;71.60;;;;;;5050843;28;20075;-72
2023/08/26 05:17:25;;;;;;;3.22;1.80;;;24.80;71.60;;;;;;5050353;28;20033;-72
2023/08/26 05:19:51;;;;;;;1.92;1.35;;;24.80;71.60;;;;;;5050740;28;20069;-72
2023/08/26 05:22:17;;;;;;;1.90;1.38;;;24.90;72.50;;;;;;5049810;28;20037;-72
2023/08/26 05:24:44;;;;;;;1.75;1.50;;;25.00;71.70;;;;;;5052073;28;20037;-72
2023/08/26 05:27:10;;;;;;;2.53;1.05;;;25.10;71.50;;;;;;5051453;28;20108;-72
2023/08/26 05:29:36;;;;;;;2.35;1.75;;;25.10;71.60;;;;;;5050751;28;20071;-72
2023/08/26 05:32:02;;;;;;;6.22;1.60;;;25.10;71.50;;;;;;5050937;28;20049;-72
2023/08/26 05:34:28;;;;;;;1.52;1.13;;;25.20;71.60;;;;;;5050608;28;20033;-72
2023/08/26 05:36:54;;;;;;;2.25;1.23;;;25.20;71.30;;;;;;5050382;28;20099;-72
2023/08/26 05:39:20;;;;;;;1.67;0.95;;;25.20;71.30;;;;;;5050478;28;20049;-72
2023/08/26 05:41:47;;;;;;;1.80;1.15;;;25.30;71.20;;;;;;5050597;28;20099;-71
2023/08/26 05:44:13;;;;;;;1.73;1.25;;;25.30;71.00;;;;;;5050574;28;20125;-71
2023/08/26 05:46:39;;;;;;;1.25;0.80;;;25.40;70.70;;;;;;5051228;28;20107;-72
2023/08/26 05:49:05;;;;;;;1.90;0.90;;;25.50;70.70;;;;;;5051815;28;20037;-72
2023/08/26 05:51:31;;;;;;;2.33;1.00;;;25.60;70.50;;;;;;5049216;28;20505;-72
2023/08/26 05:53:57;;;;;;;2.80;0.85;;;25.60;70.60;;;;;;5051663;28;20063;-72
2023/08/26 05:56:23;;;;;;;1.52;0.82;;;25.60;70.50;;;;;;5049804;28;20045;-72
2023/08/26 05:58:49;;;;;;;1.63;1.05;;;25.60;70.60;;;;;;5048168;28;20036;-72
2023/08/26 06:01:15;;;;;;;1.02;0.88;;;25.70;70.50;;;;;;5034953;28;20037;-72
2023/08/26 06:03:41;;;;;;;1.63;0.95;;;25.70;70.40;;;;;;5030494;28;20076;-72
2023/08/26 06:06:07;;;;;;;1.90;0.75;;;25.80;70.30;;;;;;5047170;28;20041;-72
2023/08/26 06:08:33;;;;;;;4.78;1.58;;;25.80;69.80;;;;;;5050370;28;20074;-72
2023/08/26 06:10:59;;;;;;;1.42;0.82;;;25.90;69.90;;;;;;5050703;28;20099;-72
2023/08/26 06:13:25;;;;;;;0.73;0.55;;;25.90;69.80;;;;;;5054366;28;20033;-72
2023/08/26 06:16:10;;;;;;;1.60;0.93;;;26.00;69.80;;;;;;5055450;28;20044;-72
2023/08/26 06:18:36;;;;;;;1.00;0.50;;;26.00;69.90;;;;;;5041485;28;20033;-72
2023/08/26 06:21:02;;;;;;;2.67;0.90;;;26.00;70.10;;;;;;5053097;28;20041;-72
2023/08/26 06:23:29;;;;;;;2.90;1.52;;;26.20;69.60;;;;;;5042641;28;20548;-72
2023/08/26 06:25:57;;;;;;;2.45;1.30;;;26.20;69.20;;;;;;5033492;28;20481;-71
2023/08/26 06:28:23;;;;;;;2.28;1.35;;;26.30;68.90;;;;;;5034138;28;20368;-72
2023/08/26 06:30:50;;;;;;;1.48;1.02;;;26.40;68.60;;;;;;5032412;28;20049;-72
2023/08/26 06:33:17;;;;;;;0.50;0.47;;;26.50;67.80;;;;;;5033931;28;20104;-72
2023/08/26 06:36:02;;;;;;;1.67;1.23;;;26.60;68.10;;;;;;5016614;28;20064;-71
2023/08/26 06:38:28;;;;;;;0.98;0.90;;;26.70;67.90;;;;;;5033621;28;20069;-72
2023/08/26 06:41:14;;;;;;;1.30;0.73;;;26.80;67.90;;;;;;5034194;28;20044;-72
2023/08/26 06:43:40;;;;;;;2.97;0.60;;;26.80;67.40;;;;;;5035241;28;20026;-72
2023/08/26 06:46:06;;;;;;;1.33;0.77;;;27.00;67.50;;;;;;5034480;28;20829;-72
2023/08/26 06:48:32;;;;;;;1.63;0.95;;;27.00;67.40;;;;;;5035514;28;20044;-72
2023/08/26 06:50:58;;;;;;;1.25;1.15;;;27.10;67.00;;;;;;5032369;28;20130;-72
2023/08/26 06:53:24;;;;;;;1.92;1.27;;;27.20;66.70;;;;;;5033682;28;20187;-72
2023/08/26 06:55:52;;;;;;;3.03;2.05;;;27.40;66.20;;;;;;5016453;28;20038;-72
2023/08/26 06:58:19;;;;;;;2.10;0.95;;;27.50;65.10;;;;;;5033553;28;20037;-72
2023/08/26 07:00:46;;;;;;;2.33;1.35;;;27.60;65.30;;;;;;5032297;28;20072;-72
2023/08/26 07:03:12;;;;;;;1.92;1.35;;;27.80;64.40;;;;;;5033413;28;20029;-72
2023/08/26 07:05:42;;;;;;;1.27;0.70;;;28.00;65.00;;;;;;5016272;28;20036;-72
2023/08/26 07:08:08;;;;;;;0.80;0.73;;;28.10;64.30;;;;;;5033500;28;20037;-72
2023/08/26 07:10:34;;;;;;;2.50;1.67;;;28.20;64.20;;;;;;5032135;28;20044;-72
2023/08/26 07:13:00;;;;;;;1.40;0.90;;;28.30;64.60;;;;;;5034449;28;20026;-72
2023/08/26 07:15:27;;;;;;;1.38;1.20;;;28.40;63.80;;;;;;5033701;28;20080;-72
2023/08/26 07:17:54;;;;;;;1.98;0.77;;;28.50;62.90;;;;;;5034273;28;20036;-72
2023/08/26 07:20:20;;;;;;;1.20;0.70;;;28.60;62.60;;;;;;5033290;28;20026;-72
2023/08/26 07:22:46;;;;;;;1.85;1.63;;;28.70;62.40;;;;;;5033123;28;20057;-72
2023/08/26 07:25:13;;;;;;;2.78;1.05;;;28.90;62.20;;;;;;5031357;28;20093;-72
2023/08/26 07:27:40;;;;;;;1.17;0.80;;;29.20;61.70;;;;;;5033072;28;20422;-72
2023/08/26 07:30:07;;;;;;;1.80;1.05;;;29.50;62.10;;;;;;5032244;28;20039;-72
2023/08/26 07:32:33;;;;;;;1.27;1.02;;;29.80;61.40;;;;;;5032941;28;20387;-72
2023/08/26 07:34:59;;;;;;;0.70;0.57;;;30.10;61.50;;;;;;5033974;28;20037;-72
2023/08/26 07:37:25;;;;;;;2.42;1.52;;;30.60;59.70;;;;;;5033806;28;20029;-72
2023/08/26 07:39:51;;;;;;;2.00;1.27;;;31.00;59.00;;;;;;5034042;28;20460;-72
2023/08/26 07:42:17;;;;;;;1.83;0.95;;;31.40;58.20;;;;;;5032962;28;20045;-72
2023/08/26 07:44:43;;;;;;;1.83;1.00;;;31.90;56.60;;;;;;5032616;28;20088;-72
2023/08/26 07:47:09;;;;;;;2.78;1.88;;;32.50;55.90;;;;;;5033289;28;20045;-72
2023/08/26 07:49:35;;;;;;;1.13;0.80;;;33.00;53.90;;;;;;5032506;28;20049;-72
2023/08/26 07:52:01;;;;;;;1.67;1.42;;;33.60;52.20;;;;;;5032702;28;20498;-72
2023/08/26 07:54:27;;;;;;;0.80;0.60;;;34.00;50.80;;;;;;5032339;28;20117;-72
2023/08/26 07:56:55;;;;;;;3.30;2.83;;;34.50;48.70;;;;;;5031984;28;20352;-72
2023/08/26 07:59:21;;;;;;;1.58;1.00;;;35.00;47.70;;;;;;5033783;28;20391;-72
2023/08/26 08:01:47;;;;;;;1.38;0.80;;;35.50;46.50;;;;;;5032371;28;20044;-73
2023/08/26 08:04:13;;;;;;;2.25;1.35;;;36.10;45.00;;;;;;5033725;28;20061;-72
2023/08/26 08:06:40;;;;;;;2.08;1.05;;;36.60;43.50;;;;;;5033033;28;20079;-73
2023/08/26 08:09:06;;;;;;;3.13;1.80;;;37.10;42.40;;;;;;5033599;28;20041;-73
2023/08/26 08:11:32;;;;;;;3.13;1.65;;;37.50;40.70;;;;;;5014581;28;20117;-73
2023/08/26 08:13:58;;;;;;;2.22;1.40;;;38.10;40.10;;;;;;5032211;28;20419;-73
2023/08/26 08:16:24;;;;;;;4.15;1.65;;;38.70;37.90;;;;;;5033498;28;20025;-72
2023/08/26 08:18:50;;;;;;;2.33;1.25;;;39.10;37.60;;;;;;5031895;28;20479;-73
2023/08/26 08:21:16;;;;;;;2.20;1.40;;;39.60;36.40;;;;;;5032056;28;20095;-73
2023/08/26 08:23:43;;;;;;;2.17;1.13;;;40.00;36.00;;;;;;5032261;28;20036;-73
2023/08/26 08:26:11;;;;;;;1.00;0.90;;;40.20;33.90;;;;;;5033147;28;20482;-73
2023/08/26 08:28:38;;;;;;;1.45;1.00;;;40.60;33.00;;;;;;5032032;28;20367;-73
2023/08/26 08:31:04;;;;;;;5.78;2.22;;;41.00;32.50;;;;;;5030760;28;20041;-73
2023/08/26 08:33:30;;;;;;;3.20;2.45;;;41.50;31.40;;;;;;5031985;28;20029;-73
2023/08/26 08:35:56;;;;;;;1.65;1.27;;;42.10;31.00;;;;;;5032071;28;20084;-73
2023/08/26 08:38:22;;;;;;;1.85;1.23;;;42.60;30.00;;;;;;5032849;28;20033;-73
2023/08/26 08:40:48;;;;;;;2.53;1.67;;;42.80;29.30;;;;;;5030457;28;20038;-73
2023/08/26 08:43:18;;;;;;;1.60;1.27;;;43.20;28.40;;;;;;5014875;28;20071;-73
2023/08/26 08:45:44;;;;;;;1.85;1.55;;;43.80;27.40;;;;;;5031063;28;20514;-73
2023/08/26 08:48:11;;;;;;;1.55;1.27;;;44.10;27.50;;;;;;5032448;28;20037;-73
2023/08/26 08:50:38;;;;;;;2.17;1.85;;;44.50;26.40;;;;;;5030088;28;20046;-73
2023/08/26 08:53:05;;;;;;;2.83;2.08;;;44.90;26.60;;;;;;5031358;28;20029;-73
2023/08/26 08:55:33;;;;;;;2.45;1.52;;;45.30;24.80;;;;;;5030706;28;20274;-73
2023/08/26 08:58:00;;;;;;;1.33;1.13;;;45.60;24.70;;;;;;5031554;28;20041;-73
2023/08/26 09:00:28;;;;;;;1.45;1.10;;;46.00;25.00;;;;;;5031558;28;20455;-73
2023/08/26 09:02:55;;;;;;;1.55;1.40;;;46.20;23.30;;;;;;5030757;28;20133;-73
2023/08/26 09:05:23;;;;;;;1.77;1.35;;;46.70;22.20;;;;;;5013988;28;20034;-73
2023/08/26 09:07:51;;;;;;;2.85;2.58;;;47.00;22.10;;;;;;5031137;28;20026;-73
2023/08/26 09:10:18;;;;;;;1.75;1.63;;;47.50;21.50;;;;;;5030058;28;20088;-73
2023/08/26 09:12:44;;;;;;;2.58;2.08;;;47.80;21.40;;;;;;5031035;28;20553;-73
2023/08/26 09:15:10;;;;;;;1.50;1.20;;;48.10;21.10;;;;;;5030541;28;20045;-73
2023/08/26 09:17:36;;;;;;;1.58;1.20;;;48.20;21.50;;;;;;5032109;28;20034;-73
2023/08/26 09:20:05;;;;;;;2.85;2.22;;;48.50;20.50;;;;;;5014361;28;20047;-73
2023/08/26 09:22:32;;;;;;;3.10;2.00;;;48.50;19.70;;;;;;5030282;28;20406;-73
2023/08/26 09:25:01;;;;;;;2.38;1.70;;;48.60;18.90;;;;;;5030828;28;20482;-73
2023/08/26 09:27:28;;;;;;;3.00;2.30;;;49.00;18.90;;;;;;5030358;28;20060;-73
2023/08/26 09:29:55;;;;;;;3.67;2.10;;;49.40;18.30;;;;;;5032114;28;20069;-73
2023/08/26 09:32:41;;;;;;;2.63;2.35;;;49.60;17.80;;;;;;5029810;28;20088;-73
2023/08/26 09:35:09;;;;;;;2.70;2.25;;;49.80;16.70;;;;;;5030134;28;20363;-73
2023/08/26 09:37:36;;;;;;;1.98;1.55;;;50.00;16.60;;;;;;5030717;28;20040;-74
2023/08/26 09:40:02;;;;;;;3.42;3.08;;;50.20;16.00;;;;;;5031910;28;20522;-73
2023/08/26 09:42:30;;;;;;;2.25;1.90;;;50.40;16.20;;;;;;5010230;28;20141;-73
2023/08/26 09:44:57;;;;;;;1.88;1.60;;;50.70;16.20;;;;;;5010777;28;20073;-74
2023/08/26 09:47:29;;;;;;;2.42;2.05;;;50.90;15.60;;;;;;5009543;28;20040;-73
2023/08/26 09:49:55;;;;;;;2.60;2.40;;;50.90;15.00;;;;;;5010881;28;20092;-73
2023/08/26 09:52:21;;;;;;;3.05;2.70;;;51.20;16.20;;;;;;5028432;28;20046;-73
2023/08/26 09:54:48;;;;;;;3.28;2.63;;;51.30;15.80;;;;;;5031611;28;20033;-73
2023/08/26 09:57:15;;;;;;;2.40;2.20;;;51.60;15.50;;;;;;5030107;28;20390;-73
2023/08/26 09:59:41;;;;;;;3.10;2.50;;;52.00;16.40;;;;;;5031768;28;20103;-73
2023/08/26 10:02:32;;;;;;;3.83;2.60;;;52.20;15.60;;;;;;5012699;28;20041;-73
2023/08/26 10:05:08;;;;;;;3.90;3.00;;;52.80;15.50;;;;;;5030323;28;20073;-73
2023/08/26 10:07:34;;;;;;;4.50;3.05;;;53.10;15.00;;;;;;5031411;28;20037;-72
2023/08/26 10:10:26;;;;;;;3.35;2.70;;;53.10;14.90;;;;;;5013837;28;20041;-73
2023/08/26 10:12:56;;;;;;;2.47;2.25;;;53.60;14.70;;;;;;5030253;28;20065;-73
2023/08/26 10:15:26;;;;;;;3.17;2.88;;;53.90;14.20;;;;;;5029788;28;20400;-73
2023/08/26 10:17:53;;;;;;;3.17;2.88;;;54.20;14.40;;;;;;5013774;28;20025;-73
2023/08/26 10:20:20;;;;;;;3.45;2.95;;;54.40;14.40;;;;;;5029197;28;20099;-73
2023/08/26 10:22:46;;;;;;;4.18;2.97;;;54.60;14.00;;;;;;5013665;28;20529;-74
2023/08/26 10:25:13;;;;;;;3.10;2.80;;;54.90;13.00;;;;;;5029746;28;20099;-73
2023/08/26 10:27:42;;;;;;;5.00;2.58;;;55.10;13.90;;;;;;5030028;28;20075;-73
2023/08/26 10:30:09;;;;;;;3.22;2.92;;;55.50;13.40;;;;;;5029246;28;20065;-73
2023/08/26 10:32:44;;;;;;;3.42;3.13;;;55.90;13.20;;;;;;5029856;28;20048;-74
2023/08/26 10:35:29;;;;;;;4.38;3.88;;;55.90;12.80;;;;;;5030788;28;20061;-74
2023/08/26 10:38:14;;;;;;;3.58;3.28;;;55.80;13.10;;;;;;5036589;28;20040;-73
2023/08/26 10:40:41;;;;;;;5.25;4.32;;;56.00;13.00;;;;;;5035862;28;20038;-73
2023/08/26 10:43:13;;;;;;;5.13;4.68;;;56.40;13.50;;;;;;5032030;28;20490;-73
2023/08/26 10:45:58;;;;;;;3.97;3.67;;;56.50;13.10;;;;;;5034783;28;20037;-73
2023/08/26 10:48:25;;;;;;;4.28;3.88;;;56.90;12.70;;;;;;5051074;28;20063;-73
2023/08/26 10:51:10;;;;;;;4.80;4.40;;;57.10;12.90;;;;;;5047880;28;20041;-73
2023/08/26 10:53:48;;;;;;;5.18;4.78;;;57.20;12.60;;;;;;5049477;28;20041;-74
2023/08/26 10:56:19;;;;;;;5.93;5.43;;;57.30;12.50;;;;;;5041763;28;20041;-73
2023/08/26 10:58:49;;;;;;;5.82;5.22;;;57.20;12.00;;;;;;5031472;28;20033;-73
2023/08/26 11:01:35;;;;;;;4.88;4.47;;;57.60;12.30;;;;;;5032230;28;20103;-73
2023/08/26 11:04:04;;;;;;;6.00;5.50;;;58.20;11.70;;;;;;5048415;28;20068;-73
2023/08/26 11:06:37;;;;;;;5.47;5.05;;;58.10;12.00;;;;;;5052408;28;20040;-74
2023/08/26 11:09:03;;;;;;;5.70;5.20;;;58.10;12.20;;;;;;5054616;28;20040;-73
2023/08/26 11:11:29;;;;;;;6.38;5.88;;;58.20;12.50;;;;;;5051727;28;20037;-73
2023/08/26 11:13:55;;;;;;;4.93;4.53;;;58.80;12.00;;;;;;5052964;28;20056;-73
2023/08/26 11:16:22;;;;;;;5.95;5.45;;;58.80;11.80;;;;;;5052712;28;20029;-73
2023/08/26 11:18:51;;;;;;;6.82;6.32;;;58.90;11.90;;;;;;5053148;28;20036;-73
2023/08/26 11:21:17;;;;;;;6.60;6.10;;;59.00;11.60;;;;;;5051793;28;20102;-73
2023/08/26 11:23:47;;;;;;;7.38;6.88;;;58.90;11.50;;;;;;5054117;28;20431;-73
2023/08/26 11:26:20;;;;;;;6.90;6.40;;;59.40;11.40;;;;;;5052416;28;20060;-73
2023/08/26 11:28:48;;;;;;;6.18;5.68;;;59.30;12.10;;;;;;5052878;28;20120;-74
2023/08/26 11:31:15;;;;;;;7.13;6.63;;;58.80;11.30;;;;;;5051701;28;20048;-73
2023/08/26 11:33:41;;;;;;;8.00;7.43;;;58.90;11.50;;;;;;5052828;28;20079;-73
2023/08/26 11:36:07;;;;;;;8.27;7.68;;;59.20;11.90;;;;;;5052301;28;20375;-73
2023/08/26 11:38:34;;;;;;;7.22;6.72;;;59.50;11.80;;;;;;5054294;28;20041;-73
2023/08/26 11:41:07;;;;;;;8.05;7.45;;;60.00;11.80;;;;;;5053031;28;20041;-73
2023/08/26 11:43:35;;;;;;;7.00;6.50;;;60.10;11.40;;;;;;5052546;28;20037;-74
2023/08/26 11:46:01;;;;;;;7.80;7.30;;;59.80;11.30;;;;;;5052278;28;20049;-73
2023/08/26 11:48:28;;;;;;;9.10;8.50;;;59.90;11.10;;;;;;5053622;28;20040;-73
2023/08/26 11:51:02;;;;;;;8.90;8.30;;;60.20;11.20;;;;;;5050657;28;20405;-73
2023/08/26 11:53:29;;;;;;;9.38;8.77;;;60.20;11.20;;;;;;5052529;28;20363;-73
2023/08/26 11:55:55;;;;;;;9.65;9.05;;;60.30;11.30;;;;;;5051924;28;20037;-73
2023/08/26 11:58:21;;;;;;;10.45;9.75;;;60.70;10.50;;;;;;5052418;28;20398;-73
2023/08/26 12:00:48;;;;;;;9.38;8.77;;;60.70;10.80;;;;;;5051009;28;20055;-73
2023/08/26 12:03:14;;;;;;;9.80;9.20;;;61.00;10.90;;;;;;5052372;28;20025;-73
2023/08/26 12:06:00;;;;;;;10.60;10.00;;;61.30;10.70;;;;;;5053136;28;20033;-73
2023/08/26 12:08:26;;;;;;;9.30;8.70;;;61.60;10.80;;;;;;5052245;28;20049;-73
2023/08/26 12:10:53;;;;;;;11.93;11.10;;;61.60;10.90;;;;;;5033604;28;20079;-73
2023/08/26 12:13:19;;;;;;;11.25;10.55;;;61.70;10.60;;;;;;5044800;28;20363;-73
2023/08/26 12:15:46;;;;;;;10.90;10.30;;;61.80;10.90;;;;;;5031606;28;20394;-73
2023/08/26 12:18:13;;;;;;;11.07;10.27;;;61.80;10.50;;;;;;5033362;28;20120;-73
2023/08/26 12:20:46;;;;;;;11.55;10.88;;;62.00;10.80;;;;;;5032104;28;20071;-72
2023/08/26 12:23:17;;;;;;;12.60;11.90;;;62.10;10.80;;;;;;5032206;28;20406;-72
2023/08/26 12:25:45;;;;;;;11.15;10.35;;;62.20;10.50;;;;;;5031533;28;20041;-73
2023/08/26 12:28:14;;;;;;;12.52;11.82;;;62.60;11.10;;;;;;5031968;28;20041;-73
2023/08/26 12:30:44;;;;;;;13.68;12.88;;;62.60;10.40;;;;;;5014287;28;20060;-72
2023/08/26 12:33:11;;;;;;;14.25;13.45;;;62.70;10.30;;;;;;5031987;28;20071;-72
2023/08/26 12:35:38;;;;;;;14.43;13.63;;;62.80;9.50;;;;;;5031314;28;20434;-72
2023/08/26 12:38:05;;;;;;;13.73;12.82;;;62.80;9.90;;;;;;5031845;28;20398;-73
2023/08/26 12:40:51;;;;;;;14.75;13.95;;;63.10;10.00;;;;;;5030353;28;20047;-73
2023/08/26 12:43:18;;;;;;;14.40;13.60;;;62.90;10.10;;;;;;5031719;28;20390;-73
2023/08/26 12:45:46;;;;;;;15.32;14.52;;;62.90;9.60;;;;;;5014605;28;20033;-72
2023/08/26 12:48:14;;;;;;;14.77;13.98;;;63.20;10.30;;;;;;5031629;28;20037;-73